Latest Coastal Weather Observations for Point Fawcett

IDD60701

Issued at 4:45 am CST Thursday 31 July 2014 (issued every 10 minutes, with the page automatically refreshed every 10 minutes)

About coastal observations | Map of coastal stations | Coastal observations for NT | Marine services | Other Formats
Station Details ID: 200731 Name: POINT FAWCETT Lat: -11.76 Lon: 130.03 Height: 6.5 m
Data from the previous 72 hours. | See also: Recent months at Point Fawcett
Date/Time
CST
Temp

°C
Wind Pressure Rain
since 9am
mm
Weather Cloud Vis
km
Sea
Height
m
Swell
Dir
 
Speed
knots
Gust
knots
hPa Trend Height
m
Period
s
Dir
31/04:30am 21.9 E 5 6 1014.2 - - - - - - - - -
31/04:00am 20.8 ESE 4 6 1014.2 - - - - - - - - -
31/03:30am 20.2 ESE 4 5 1014.2 - - - - - - - - -
31/03:00am 19.7 ESE 4 6 1014.2 - - - - - - - - -
31/02:30am 19.6 E 5 6 1014.5 - - - - - - - - -
31/02:00am 19.6 E 4 5 1014.4 - - - - - - - - -
31/01:30am 19.6 ESE 4 6 1014.5 - - - - - - - - -
31/01:00am 19.8 ESE 4 5 1014.5 - - - - - - - - -
31/12:30am 19.6 SSE 4 5 1014.5 - - - - - - - - -
31/12:00am 19.9 SSE 3 4 1014.3 - - - - - - - - -
 
Date/Time
CST
Temp

°C
Wind Pressure Rain
since 9am
mm
Weather Cloud Vis
km
Sea
Height
m
Swell
Dir
 
Speed
knots
Gust
knots
hPa Trend Height
m
Period
s
Dir
30/11:30pm 20.2 SSE 4 4 1014.4 - - - - - - - - -
30/11:00pm 20.9 SSE 4 4 1014.4 - - - - - - - - -
30/10:30pm 22.8 ENE 4 5 1014.5 - - - - - - - - -
30/10:00pm 21.9 ENE 4 5 1014.5 - - - - - - - - -
30/09:30pm 22.8 ENE 4 6 1014.5 - - - - - - - - -
30/09:00pm 21.9 ESE 2 4 1014.4 - - - - - - - - -
30/08:30pm 22.7 SE 2 5 1014.2 - - - - - - - - -
30/08:00pm 24.0 NNW 1 4 1013.7 - - - - - - - - -
30/07:30pm 26.2 N 5 6 1013.3 - - - - - - - - -
30/07:00pm 26.5 N 6 9 1013.0 - - - - - - - - -
30/06:30pm 27.1 N 7 9 1012.7 - - - - - - - - -
30/06:00pm 28.4 N 8 11 1012.5 - - - - - - - - -
30/05:30pm 30.4 E 4 6 1012.2 - - - - - - - - -
30/05:00pm 30.6 SE 6 10 1012.0 - - - - - - - - -
30/04:30pm 31.3 ESE 7 12 1012.0 - - - - - - - - -
30/04:00pm 31.6 ESE 8 15 1011.9 - - - - - - - - -
30/03:30pm 31.7 E 10 19 1012.0 - - - - - - - - -
30/03:00pm 31.0 ESE 9 14 1012.2 - - - - - - - - -
30/02:30pm 30.2 ESE 9 17 1012.7 - - - - - - - - -
30/02:00pm 30.0 SE 9 16 1013.2 - - - - - - - - -
30/01:30pm 30.1 SE 7 14 1013.5 - - - - - - - - -
30/01:00pm 29.3 SSE 9 14 1014.0 - - - - - - - - -
30/12:30pm 29.7 SSE 9 16 1014.4 - - - - - - - - -
30/12:00pm 30.2 ESE 8 15 1014.7 - - - - - - - - -
30/11:30am 30.3 ESE 8 14 1015.1 - - - - - - - - -
30/11:00am 29.5 E 8 14 1015.6 - - - - - - - - -
30/10:30am 29.3 ESE 7 13 1015.8 - - - - - - - - -
30/10:00am 28.3 ESE 7 11 1016.0 - - - - - - - - -
30/09:30am 27.2 SE 5 8 1016.1 - - - - - - - - -
30/09:00am 25.6 SE 4 6 1016.0 - - - - - - - - -
30/08:30am 23.0 SE 3 4 1015.9 - - - - - - - - -
30/08:00am 20.0 SE 3 3 1015.8 - - - - - - - - -
30/07:30am 18.7 SE 4 5 1015.3 - - - - - - - - -
30/07:00am 18.4 ESE 4 5 1015.2 - - - - - - - - -
30/06:30am 18.6 S 4 5 1014.9 - - - - - - - - -
30/06:00am 18.8 E 4 6 1014.7 - - - - - - - - -
30/05:30am 18.8 E 4 5 1014.8 - - - - - - - - -
30/05:00am 19.0 ESE 3 4 1014.8 - - - - - - - - -
30/04:30am 19.2 ESE 4 5 1014.6 - - - - - - - - -
30/04:00am 19.4 SE 3 4 1014.5 - - - - - - - - -
30/03:30am 20.1 ESE 5 6 1014.5 - - - - - - - - -
30/03:00am 20.6 ESE 4 5 1014.5 - - - - - - - - -
30/02:30am 20.5 ESE 5 6 1014.6 - - - - - - - - -
30/02:00am 19.1 SE 4 4 1014.6 - - - - - - - - -
30/01:30am 19.1 ESE 4 6 1014.6 - - - - - - - - -
30/01:00am 18.9 SSE 4 5 1014.7 - - - - - - - - -
30/12:30am 18.9 SSE 4 5 1014.7 - - - - - - - - -
30/12:00am 19.1 S 4 5 1014.7 - - - - - - - - -
 
Date/Time
CST
Temp

°C
Wind Pressure Rain
since 9am
mm
Weather Cloud Vis
km
Sea
Height
m
Swell
Dir
 
Speed
knots
Gust
knots
hPa Trend Height
m
Period
s
Dir
29/11:30pm 19.4 S 3 4 1014.7 - - - - - - - - -
29/11:00pm 20.0 ESE 1 3 1014.8 - - - - - - - - -
29/10:30pm 21.2 E 3 4 1014.7 - - - - - - - - -
29/10:00pm 23.0 ENE 4 6 1014.7 - - - - - - - - -
29/09:30pm 23.7 ENE 5 6 1014.5 - - - - - - - - -
29/09:00pm 23.8 ENE 5 7 1014.4 - - - - - - - - -
29/08:30pm 23.4 ENE 5 7 1014.0 - - - - - - - - -
29/08:00pm 21.5 ENE 5 6 1013.8 - - - - - - - - -
29/07:30pm 21.9 ENE 4 5 1013.5 - - - - - - - - -
29/07:00pm 23.9 E 4 5 1013.1 - - - - - - - - -
29/06:30pm 27.8 E 4 6 1012.8 - - - - - - - - -
29/06:00pm 29.8 ENE 5 8 1012.6 - - - - - - - - -
29/05:30pm 30.9 E 7 13 1012.4 - - - - - - - - -
29/05:00pm 31.3 E 9 12 1012.2 - - - - - - - - -
29/04:30pm 31.3 E 9 19 1012.1 - - - - - - - - -
29/04:00pm 31.4 E 10 19 1012.1 - - - - - - - - -
29/03:30pm 31.6 E 11 21 1012.2 - - - - - - - - -
29/03:00pm 31.1 E 13 19 1012.4 - - - - - - - - -
29/02:30pm 31.5 ESE 10 22 1012.8 - - - - - - - - -
29/02:00pm 31.3 ESE 10 16 1013.1 - - - - - - - - -
29/01:30pm 30.3 ESE 11 17 1013.4 - - - - - - - - -
29/01:00pm 30.3 E 9 15 1013.8 - - - - - - - - -
29/12:30pm 30.0 E 10 17 1014.5 - - - - - - - - -
29/12:00pm 29.1 ESE 11 23 1015.0 - - - - - - - - -
29/11:30am 29.4 ESE 10 20 1015.2 - - - - - - - - -
29/11:00am 29.0 E 10 15 1015.5 - - - - - - - - -
29/10:30am 28.0 E 10 19 1015.9 - - - - - - - - -
29/10:00am 28.1 ESE 9 15 1016.0 - - - - - - - - -
29/09:30am 27.5 E 7 12 1016.1 - - - - - - - - -
29/09:00am 25.9 E 6 10 1016.1 - - - - - - - - -
29/08:30am 24.5 E 6 9 1015.8 - - - - - - - - -
29/08:00am 22.1 E 4 6 1015.6 - - - - - - - - -
29/07:30am 20.8 E 4 5 1015.2 - - - - - - - - -
29/07:00am 19.8 ESE 4 5 1015.0 - - - - - - - - -
29/06:30am 19.2 E 4 5 1014.9 - - - - - - - - -
29/06:00am 18.8 E 5 6 1014.8 - - - - - - - - -
29/05:30am 18.8 ESE 5 5 1014.7 - - - - - - - - -
29/05:00am 18.7 ESE 4 5 1014.6 - - - - - - - - -
29/04:30am 19.0 E 4 5 1014.4 - - - - - - - - -
29/04:00am 18.8 ESE 4 5 1014.5 - - - - - - - - -
29/03:30am 19.3 ESE 4 5 1014.5 - - - - - - - - -
29/03:00am 18.4 ESE 4 6 1014.7 - - - - - - - - -
29/02:30am 18.5 ESE 4 5 1014.6 - - - - - - - - -
29/02:00am 18.3 SE 4 5 1014.6 - - - - - - - - -
29/01:30am 18.1 SSE 5 6 1014.7 - - - - - - - - -
29/01:00am 18.0 SSE 4 5 1014.7 - - - - - - - - -
29/12:30am 18.0 E 3 3 1014.7 - - - - - - - - -
29/12:00am 18.0 ENE 4 4 1014.8 - - - - - - - - -
 
Date/Time
CST
Temp

°C
Wind Pressure Rain
since 9am
mm
Weather Cloud Vis
km
Sea
Height
m
Swell
Dir
 
Speed
knots
Gust
knots
hPa Trend Height
m
Period
s
Dir
28/11:30pm 18.1 CALM 0 0 1014.8 - - - - - - - - -
28/11:00pm 18.2 CALM 0 0 1014.7 - - - - - - - - -
28/10:30pm 18.5 CALM 0 3 1014.7 - - - - - - - - -
28/10:00pm 19.2 ESE 3 4 1014.6 - - - - - - - - -
28/09:30pm 20.5 S 4 6 1014.6 - - - - - - - - -
28/09:00pm 20.6 ENE 5 6 1014.4 - - - - - - - - -
28/08:30pm 21.9 ENE 5 6 1014.1 - - - - - - - - -
28/08:00pm 23.5 ENE 5 7 1014.0 - - - - - - - - -
28/07:30pm 23.8 E 6 7 1013.8 - - - - - - - - -
28/07:00pm 24.1 ENE 5 7 1013.2 - - - - - - - - -
28/06:30pm 25.4 E 6 9 1012.8 - - - - - - - - -
28/06:00pm 27.4 E 7 12 1012.6 - - - - - - - - -
28/05:30pm 28.8 ESE 7 10 1012.4 - - - - - - - - -
28/05:00pm 29.4 ESE 7 12 1012.1 - - - - - - - - -
28/04:30pm 29.9 ESE 8 12 1012.1 - - - - - - - - -
28/04:00pm 29.6 ESE 6 13 1012.3 - - - - - - - - -
28/03:30pm 29.2 ESE 7 14 1012.5 - - - - - - - - -
28/03:00pm 29.8 ESE 10 15 1012.7 - - - - - - - - -
28/02:30pm 29.7 ESE 9 17 1013.2 - - - - - - - - -
28/02:00pm 30.1 ESE 9 17 1013.7 - - - - - - - - -
28/01:30pm 29.9 ESE 10 19 1014.3 - - - - - - - - -
28/01:00pm 30.0 ESE 10 18 1014.7 - - - - - - - - -
28/12:30pm 29.5 ESE 10 17 1015.1 - - - - - - - - -
28/12:00pm 29.3 ESE 9 17 1015.6 - - - - - - - - -
28/11:30am 29.4 ESE 7 14 1015.9 - - - - - - - - -
28/11:00am 29.1 ESE 8 15 1016.2 - - - - - - - - -
28/10:30am 28.9 SE 8 13 1016.4 - - - - - - - - -
28/10:00am 28.2 SE 5 10 1016.6 - - - - - - - - -
28/09:30am 27.1 ESE 4 6 1016.6 - - - - - - - - -
28/09:00am 25.1 E 5 6 1016.4 - - - - - - - - -
28/08:30am 22.6 E 4 6 1016.2 - - - - - - - - -
28/08:00am 20.5 E 4 5 1016.0 - - - - - - - - -
28/07:30am 18.7 E 4 5 1015.7 - - - - - - - - -
28/07:00am 18.3 E 4 5 1015.4 - - - - - - - - -
28/06:30am 18.5 E 4 5 1015.3 - - - - - - - - -
28/06:00am 18.7 E 4 5 1015.1 - - - - - - - - -
28/05:30am 18.9 E 4 5 1014.9 - - - - - - - - -
28/05:00am 19.0 E 4 6 1014.9 - - - - - - - - -

Other Formats:

Comma delimited format used in spreadsheet applications
http://www.bom.gov.au/fwo/IDD60701/IDD60701.94122.axf

JavaScript Object Notation format (JSON) in row-major order
http://www.bom.gov.au/fwo/IDD60701/IDD60701.94122.json